sensor_id;sensor_type;location;lat;lon;timestamp;P1;durP1;ratioP1;P2;durP2;ratioP2
70416;SDS011;57839;51.332;12.410;2023-04-09T00:01:05;44.15;;;28.42;;
70416;SDS011;57839;51.332;12.410;2023-04-09T00:03:32;42.90;;;28.88;;
70416;SDS011;57839;51.332;12.410;2023-04-09T00:05:57;41.35;;;28.10;;
70416;SDS011;57839;51.332;12.410;2023-04-09T00:08:23;42.13;;;29.38;;
70416;SDS011;57839;51.332;12.410;2023-04-09T00:10:49;45.05;;;28.70;;
70416;SDS011;57839;51.332;12.410;2023-04-09T00:13:15;47.13;;;30.80;;
70416;SDS011;57839;51.332;12.410;2023-04-09T00:15:46;48.88;;;31.83;;
70416;SDS011;57839;51.332;12.410;2023-04-09T00:18:13;44.45;;;29.38;;
70416;SDS011;57839;51.332;12.410;2023-04-09T00:20:39;41.22;;;28.83;;
70416;SDS011;57839;51.332;12.410;2023-04-09T00:23:04;44.85;;;28.30;;
70416;SDS011;57839;51.332;12.410;2023-04-09T00:25:30;43.50;;;29.17;;
70416;SDS011;57839;51.332;12.410;2023-04-09T00:27:57;43.75;;;28.85;;
70416;SDS011;57839;51.332;12.410;2023-04-09T00:30:23;45.70;;;30.83;;
70416;SDS011;57839;51.332;12.410;2023-04-09T00:32:49;40.95;;;27.95;;
70416;SDS011;57839;51.332;12.410;2023-04-09T00:35:14;41.88;;;28.17;;
70416;SDS011;57839;51.332;12.410;2023-04-09T00:37:42;42.35;;;27.63;;
70416;SDS011;57839;51.332;12.410;2023-04-09T00:40:08;39.70;;;27.08;;
70416;SDS011;57839;51.332;12.410;2023-04-09T00:42:35;43.22;;;28.15;;
70416;SDS011;57839;51.332;12.410;2023-04-09T00:45:01;43.22;;;28.27;;
70416;SDS011;57839;51.332;12.410;2023-04-09T00:47:28;46.55;;;30.48;;
70416;SDS011;57839;51.332;12.410;2023-04-09T00:49:55;49.92;;;32.53;;
70416;SDS011;57839;51.332;12.410;2023-04-09T00:52:21;50.40;;;31.77;;
70416;SDS011;57839;51.332;12.410;2023-04-09T00:54:48;50.53;;;32.53;;
70416;SDS011;57839;51.332;12.410;2023-04-09T00:57:15;42.50;;;29.92;;
70416;SDS011;57839;51.332;12.410;2023-04-09T00:59:41;42.00;;;28.50;;
70416;SDS011;57839;51.332;12.410;2023-04-09T01:02:07;51.08;;;33.55;;
70416;SDS011;57839;51.332;12.410;2023-04-09T01:04:33;49.45;;;32.50;;
70416;SDS011;57839;51.332;12.410;2023-04-09T01:10:13;47.35;;;30.55;;
70416;SDS011;57839;51.332;12.410;2023-04-09T01:12:47;49.78;;;30.95;;
70416;SDS011;57839;51.332;12.410;2023-04-09T01:15:32;55.00;;;33.70;;
70416;SDS011;57839;51.332;12.410;2023-04-09T01:18:09;46.25;;;30.90;;
70416;SDS011;57839;51.332;12.410;2023-04-09T01:20:39;48.22;;;32.78;;
70416;SDS011;57839;51.332;12.410;2023-04-09T01:28:41;44.95;;;30.65;;
70416;SDS011;57839;51.332;12.410;2023-04-09T01:31:12;55.30;;;34.85;;
70416;SDS011;57839;51.332;12.410;2023-04-09T01:33:40;46.83;;;31.38;;
70416;SDS011;57839;51.332;12.410;2023-04-09T01:36:06;46.20;;;30.67;;
70416;SDS011;57839;51.332;12.410;2023-04-09T01:38:32;44.08;;;31.00;;
70416;SDS011;57839;51.332;12.410;2023-04-09T01:41:00;45.92;;;30.38;;
70416;SDS011;57839;51.332;12.410;2023-04-09T01:43:27;45.85;;;31.58;;
70416;SDS011;57839;51.332;12.410;2023-04-09T01:45:55;48.97;;;31.35;;
70416;SDS011;57839;51.332;12.410;2023-04-09T01:48:21;45.28;;;30.10;;
70416;SDS011;57839;51.332;12.410;2023-04-09T01:50:47;54.40;;;34.35;;
70416;SDS011;57839;51.332;12.410;2023-04-09T01:53:13;44.13;;;30.23;;
70416;SDS011;57839;51.332;12.410;2023-04-09T01:55:39;47.53;;;31.77;;
70416;SDS011;57839;51.332;12.410;2023-04-09T01:58:05;47.70;;;30.70;;
70416;SDS011;57839;51.332;12.410;2023-04-09T02:00:34;49.03;;;32.88;;
70416;SDS011;57839;51.332;12.410;2023-04-09T02:03:24;47.33;;;31.42;;
70416;SDS011;57839;51.332;12.410;2023-04-09T02:05:56;43.45;;;29.83;;
70416;SDS011;57839;51.332;12.410;2023-04-09T02:08:24;46.40;;;29.85;;
70416;SDS011;57839;51.332;12.410;2023-04-09T02:10:52;46.42;;;30.27;;
70416;SDS011;57839;51.332;12.410;2023-04-09T02:13:20;46.90;;;30.35;;
70416;SDS011;57839;51.332;12.410;2023-04-09T02:15:45;50.75;;;31.55;;
70416;SDS011;57839;51.332;12.410;2023-04-09T02:18:24;51.15;;;33.65;;
70416;SDS011;57839;51.332;12.410;2023-04-09T02:20:52;44.13;;;29.55;;
70416;SDS011;57839;51.332;12.410;2023-04-09T02:23:18;46.45;;;30.30;;
70416;SDS011;57839;51.332;12.410;2023-04-09T02:25:43;45.83;;;31.75;;
70416;SDS011;57839;51.332;12.410;2023-04-09T02:28:09;51.28;;;32.13;;
70416;SDS011;57839;51.332;12.410;2023-04-09T02:30:35;47.38;;;31.13;;
70416;SDS011;57839;51.332;12.410;2023-04-09T02:33:00;50.40;;;32.08;;
70416;SDS011;57839;51.332;12.410;2023-04-09T02:35:26;47.60;;;31.05;;
70416;SDS011;57839;51.332;12.410;2023-04-09T02:37:51;48.20;;;31.95;;
70416;SDS011;57839;51.332;12.410;2023-04-09T02:40:17;44.00;;;29.85;;
70416;SDS011;57839;51.332;12.410;2023-04-09T02:42:43;42.42;;;28.23;;
70416;SDS011;57839;51.332;12.410;2023-04-09T02:45:08;45.40;;;30.35;;
70416;SDS011;57839;51.332;12.410;2023-04-09T02:47:34;51.70;;;33.22;;
70416;SDS011;57839;51.332;12.410;2023-04-09T02:50:00;47.97;;;31.00;;
70416;SDS011;57839;51.332;12.410;2023-04-09T02:52:26;46.75;;;30.65;;
70416;SDS011;57839;51.332;12.410;2023-04-09T02:54:52;48.35;;;30.75;;
70416;SDS011;57839;51.332;12.410;2023-04-09T02:57:17;46.75;;;31.42;;
70416;SDS011;57839;51.332;12.410;2023-04-09T02:59:43;51.38;;;33.35;;
70416;SDS011;57839;51.332;12.410;2023-04-09T03:02:10;45.40;;;30.42;;
70416;SDS011;57839;51.332;12.410;2023-04-09T03:04:35;51.38;;;33.70;;
70416;SDS011;57839;51.332;12.410;2023-04-09T03:07:01;50.67;;;32.78;;
70416;SDS011;57839;51.332;12.410;2023-04-09T03:09:27;53.60;;;33.90;;
70416;SDS011;57839;51.332;12.410;2023-04-09T03:11:53;51.45;;;33.75;;
70416;SDS011;57839;51.332;12.410;2023-04-09T03:14:20;49.70;;;33.65;;
70416;SDS011;57839;51.332;12.410;2023-04-09T03:16:46;51.22;;;32.45;;
70416;SDS011;57839;51.332;12.410;2023-04-09T03:19:11;53.67;;;33.72;;
70416;SDS011;57839;51.332;12.410;2023-04-09T03:21:37;54.90;;;35.42;;
70416;SDS011;57839;51.332;12.410;2023-04-09T03:24:02;56.13;;;35.72;;
70416;SDS011;57839;51.332;12.410;2023-04-09T03:26:31;52.55;;;34.05;;
70416;SDS011;57839;51.332;12.410;2023-04-09T03:29:03;55.20;;;35.10;;
70416;SDS011;57839;51.332;12.410;2023-04-09T03:31:30;51.17;;;34.47;;
70416;SDS011;57839;51.332;12.410;2023-04-09T03:33:56;54.55;;;35.45;;
70416;SDS011;57839;51.332;12.410;2023-04-09T03:36:21;50.33;;;32.78;;
70416;SDS011;57839;51.332;12.410;2023-04-09T03:38:47;54.45;;;35.50;;
70416;SDS011;57839;51.332;12.410;2023-04-09T03:41:13;48.63;;;32.42;;
70416;SDS011;57839;51.332;12.410;2023-04-09T03:43:39;50.03;;;34.03;;
70416;SDS011;57839;51.332;12.410;2023-04-09T03:46:12;46.45;;;31.85;;
70416;SDS011;57839;51.332;12.410;2023-04-09T03:48:38;52.80;;;35.13;;
70416;SDS011;57839;51.332;12.410;2023-04-09T03:51:04;55.00;;;34.85;;
70416;SDS011;57839;51.332;12.410;2023-04-09T03:53:29;57.45;;;36.50;;
70416;SDS011;57839;51.332;12.410;2023-04-09T03:55:55;52.70;;;35.20;;
70416;SDS011;57839;51.332;12.410;2023-04-09T03:58:23;54.47;;;36.10;;
70416;SDS011;57839;51.332;12.410;2023-04-09T04:00:49;56.42;;;36.85;;
70416;SDS011;57839;51.332;12.410;2023-04-09T04:03:15;57.58;;;36.90;;
70416;SDS011;57839;51.332;12.410;2023-04-09T04:05:41;61.90;;;40.00;;
70416;SDS011;57839;51.332;12.410;2023-04-09T04:08:06;55.53;;;37.35;;
70416;SDS011;57839;51.332;12.410;2023-04-09T04:10:33;57.33;;;37.35;;
70416;SDS011;57839;51.332;12.410;2023-04-09T04:12:58;56.30;;;36.55;;
70416;SDS011;57839;51.332;12.410;2023-04-09T04:15:26;55.67;;;35.97;;
70416;SDS011;57839;51.332;12.410;2023-04-09T04:17:52;60.85;;;38.38;;
70416;SDS011;57839;51.332;12.410;2023-04-09T04:20:18;64.47;;;42.05;;
70416;SDS011;57839;51.332;12.410;2023-04-09T04:22:43;65.60;;;39.95;;
70416;SDS011;57839;51.332;12.410;2023-04-09T04:25:09;61.30;;;39.38;;
70416;SDS011;57839;51.332;12.410;2023-04-09T04:27:35;62.08;;;39.10;;
70416;SDS011;57839;51.332;12.410;2023-04-09T04:30:01;60.50;;;39.30;;
70416;SDS011;57839;51.332;12.410;2023-04-09T04:32:27;64.55;;;39.75;;
70416;SDS011;57839;51.332;12.410;2023-04-09T04:34:53;60.67;;;39.08;;
70416;SDS011;57839;51.332;12.410;2023-04-09T04:37:18;65.22;;;40.13;;
70416;SDS011;57839;51.332;12.410;2023-04-09T04:39:44;62.88;;;40.03;;
70416;SDS011;57839;51.332;12.410;2023-04-09T04:42:10;62.50;;;40.17;;
70416;SDS011;57839;51.332;12.410;2023-04-09T04:44:36;59.17;;;39.95;;
70416;SDS011;57839;51.332;12.410;2023-04-09T04:47:01;63.67;;;40.70;;
70416;SDS011;57839;51.332;12.410;2023-04-09T04:49:27;59.60;;;38.95;;
70416;SDS011;57839;51.332;12.410;2023-04-09T04:51:53;63.35;;;41.63;;
70416;SDS011;57839;51.332;12.410;2023-04-09T04:54:18;63.00;;;41.15;;
70416;SDS011;57839;51.332;12.410;2023-04-09T04:56:44;57.35;;;37.95;;
70416;SDS011;57839;51.332;12.410;2023-04-09T04:59:09;68.28;;;42.95;;
70416;SDS011;57839;51.332;12.410;2023-04-09T05:01:35;68.88;;;42.35;;
70416;SDS011;57839;51.332;12.410;2023-04-09T05:04:01;68.15;;;44.30;;
70416;SDS011;57839;51.332;12.410;2023-04-09T05:06:28;67.00;;;44.15;;
70416;SDS011;57839;51.332;12.410;2023-04-09T05:08:54;62.25;;;41.65;;
70416;SDS011;57839;51.332;12.410;2023-04-09T05:11:23;64.68;;;42.53;;
70416;SDS011;57839;51.332;12.410;2023-04-09T05:13:49;68.15;;;41.20;;
70416;SDS011;57839;51.332;12.410;2023-04-09T05:16:15;61.22;;;41.10;;
70416;SDS011;57839;51.332;12.410;2023-04-09T05:18:42;63.08;;;41.55;;
70416;SDS011;57839;51.332;12.410;2023-04-09T05:21:08;60.88;;;40.13;;
70416;SDS011;57839;51.332;12.410;2023-04-09T05:23:33;59.17;;;38.58;;
70416;SDS011;57839;51.332;12.410;2023-04-09T05:25:59;61.70;;;40.45;;
70416;SDS011;57839;51.332;12.410;2023-04-09T05:28:25;66.97;;;43.15;;
70416;SDS011;57839;51.332;12.410;2023-04-09T05:30:51;57.30;;;37.78;;
70416;SDS011;57839;51.332;12.410;2023-04-09T05:33:16;58.53;;;38.53;;
70416;SDS011;57839;51.332;12.410;2023-04-09T05:35:42;63.20;;;42.05;;
70416;SDS011;57839;51.332;12.410;2023-04-09T05:38:08;53.70;;;36.65;;
70416;SDS011;57839;51.332;12.410;2023-04-09T05:40:33;64.82;;;43.03;;
70416;SDS011;57839;51.332;12.410;2023-04-09T05:43:00;61.85;;;40.28;;
70416;SDS011;57839;51.332;12.410;2023-04-09T05:45:26;60.13;;;39.47;;
70416;SDS011;57839;51.332;12.410;2023-04-09T05:47:55;60.17;;;40.92;;
70416;SDS011;57839;51.332;12.410;2023-04-09T05:50:21;69.55;;;44.97;;
70416;SDS011;57839;51.332;12.410;2023-04-09T05:52:47;65.50;;;42.28;;
70416;SDS011;57839;51.332;12.410;2023-04-09T05:55:12;63.10;;;41.53;;
70416;SDS011;57839;51.332;12.410;2023-04-09T05:57:38;69.70;;;43.70;;
70416;SDS011;57839;51.332;12.410;2023-04-09T06:00:04;63.72;;;40.95;;
70416;SDS011;57839;51.332;12.410;2023-04-09T06:02:30;65.43;;;41.40;;
70416;SDS011;57839;51.332;12.410;2023-04-09T06:04:56;62.13;;;40.97;;
70416;SDS011;57839;51.332;12.410;2023-04-09T06:07:21;61.15;;;39.65;;
70416;SDS011;57839;51.332;12.410;2023-04-09T06:09:47;62.20;;;40.25;;
70416;SDS011;57839;51.332;12.410;2023-04-09T06:12:13;57.67;;;39.20;;
70416;SDS011;57839;51.332;12.410;2023-04-09T06:14:39;54.97;;;35.95;;
70416;SDS011;57839;51.332;12.410;2023-04-09T06:17:05;62.95;;;40.22;;
70416;SDS011;57839;51.332;12.410;2023-04-09T06:19:31;54.53;;;36.80;;
70416;SDS011;57839;51.332;12.410;2023-04-09T06:21:57;58.78;;;38.58;;
70416;SDS011;57839;51.332;12.410;2023-04-09T06:24:22;57.15;;;36.60;;
70416;SDS011;57839;51.332;12.410;2023-04-09T06:26:48;55.60;;;37.30;;
70416;SDS011;57839;51.332;12.410;2023-04-09T06:29:14;53.75;;;34.78;;
70416;SDS011;57839;51.332;12.410;2023-04-09T06:31:40;52.92;;;36.25;;
70416;SDS011;57839;51.332;12.410;2023-04-09T06:34:06;59.58;;;38.53;;
70416;SDS011;57839;51.332;12.410;2023-04-09T06:36:32;55.45;;;36.08;;
70416;SDS011;57839;51.332;12.410;2023-04-09T06:38:57;58.85;;;37.80;;
70416;SDS011;57839;51.332;12.410;2023-04-09T06:41:23;53.50;;;35.67;;
70416;SDS011;57839;51.332;12.410;2023-04-09T06:43:49;58.30;;;37.55;;
70416;SDS011;57839;51.332;12.410;2023-04-09T06:46:15;60.58;;;38.75;;
70416;SDS011;57839;51.332;12.410;2023-04-09T06:48:44;58.75;;;37.28;;
70416;SDS011;57839;51.332;12.410;2023-04-09T06:51:09;59.28;;;36.53;;
70416;SDS011;57839;51.332;12.410;2023-04-09T06:53:36;56.25;;;35.90;;
70416;SDS011;57839;51.332;12.410;2023-04-09T06:56:02;56.63;;;36.95;;
70416;SDS011;57839;51.332;12.410;2023-04-09T06:58:28;61.63;;;35.05;;
70416;SDS011;57839;51.332;12.410;2023-04-09T07:00:53;53.33;;;35.78;;
70416;SDS011;57839;51.332;12.410;2023-04-09T07:03:19;52.10;;;33.58;;
70416;SDS011;57839;51.332;12.410;2023-04-09T07:05:45;54.90;;;35.95;;
70416;SDS011;57839;51.332;12.410;2023-04-09T07:08:10;54.75;;;33.88;;
70416;SDS011;57839;51.332;12.410;2023-04-09T07:10:36;50.00;;;31.73;;
70416;SDS011;57839;51.332;12.410;2023-04-09T07:13:02;52.13;;;34.25;;
70416;SDS011;57839;51.332;12.410;2023-04-09T07:15:27;49.45;;;32.28;;
70416;SDS011;57839;51.332;12.410;2023-04-09T07:17:53;49.90;;;33.83;;
70416;SDS011;57839;51.332;12.410;2023-04-09T07:20:18;74.57;;;47.63;;
70416;SDS011;57839;51.332;12.410;2023-04-09T07:22:44;54.88;;;34.97;;
70416;SDS011;57839;51.332;12.410;2023-04-09T07:25:10;52.53;;;33.80;;
70416;SDS011;57839;51.332;12.410;2023-04-09T07:27:35;53.95;;;35.13;;
70416;SDS011;57839;51.332;12.410;2023-04-09T07:30:01;52.55;;;34.17;;
70416;SDS011;57839;51.332;12.410;2023-04-09T07:32:27;45.42;;;30.85;;
70416;SDS011;57839;51.332;12.410;2023-04-09T07:34:53;46.65;;;30.27;;
70416;SDS011;57839;51.332;12.410;2023-04-09T07:37:19;79.30;;;49.25;;
70416;SDS011;57839;51.332;12.410;2023-04-09T07:39:46;49.13;;;31.92;;
70416;SDS011;57839;51.332;12.410;2023-04-09T07:42:12;45.83;;;30.65;;
70416;SDS011;57839;51.332;12.410;2023-04-09T07:44:38;44.33;;;28.58;;
70416;SDS011;57839;51.332;12.410;2023-04-09T07:47:04;44.50;;;29.45;;
70416;SDS011;57839;51.332;12.410;2023-04-09T07:49:31;43.70;;;29.33;;
70416;SDS011;57839;51.332;12.410;2023-04-09T07:51:57;43.65;;;29.35;;
70416;SDS011;57839;51.332;12.410;2023-04-09T07:54:23;43.30;;;26.17;;
70416;SDS011;57839;51.332;12.410;2023-04-09T07:56:49;38.88;;;26.33;;
70416;SDS011;57839;51.332;12.410;2023-04-09T07:59:14;45.42;;;29.30;;
70416;SDS011;57839;51.332;12.410;2023-04-09T08:01:40;41.78;;;29.15;;
70416;SDS011;57839;51.332;12.410;2023-04-09T08:04:06;43.35;;;27.65;;
70416;SDS011;57839;51.332;12.410;2023-04-09T08:06:32;40.47;;;27.58;;
70416;SDS011;57839;51.332;12.410;2023-04-09T08:08:57;41.38;;;27.77;;
70416;SDS011;57839;51.332;12.410;2023-04-09T08:11:23;38.50;;;27.23;;
70416;SDS011;57839;51.332;12.410;2023-04-09T08:13:50;38.92;;;24.58;;
70416;SDS011;57839;51.332;12.410;2023-04-09T08:16:17;106.05;;;69.05;;
70416;SDS011;57839;51.332;12.410;2023-04-09T08:18:43;42.17;;;26.33;;
70416;SDS011;57839;51.332;12.410;2023-04-09T08:21:08;41.38;;;27.67;;
70416;SDS011;57839;51.332;12.410;2023-04-09T08:23:34;39.03;;;26.63;;
70416;SDS011;57839;51.332;12.410;2023-04-09T08:26:00;40.00;;;27.45;;
70416;SDS011;57839;51.332;12.410;2023-04-09T08:28:25;39.42;;;26.85;;
70416;SDS011;57839;51.332;12.410;2023-04-09T08:30:51;37.75;;;25.65;;
70416;SDS011;57839;51.332;12.410;2023-04-09T08:33:17;34.25;;;24.23;;
70416;SDS011;57839;51.332;12.410;2023-04-09T08:35:43;38.50;;;26.98;;
70416;SDS011;57839;51.332;12.410;2023-04-09T08:38:09;36.05;;;27.40;;
70416;SDS011;57839;51.332;12.410;2023-04-09T08:40:35;38.40;;;27.15;;
70416;SDS011;57839;51.332;12.410;2023-04-09T08:43:03;37.75;;;26.17;;
70416;SDS011;57839;51.332;12.410;2023-04-09T08:45:30;35.83;;;26.10;;
70416;SDS011;57839;51.332;12.410;2023-04-09T08:47:56;34.28;;;25.75;;
70416;SDS011;57839;51.332;12.410;2023-04-09T08:50:27;35.10;;;24.50;;
70416;SDS011;57839;51.332;12.410;2023-04-09T08:52:54;36.40;;;24.25;;
70416;SDS011;57839;51.332;12.410;2023-04-09T08:55:21;33.28;;;24.65;;
70416;SDS011;57839;51.332;12.410;2023-04-09T08:57:47;34.78;;;25.38;;
70416;SDS011;57839;51.332;12.410;2023-04-09T09:00:12;35.85;;;24.63;;
70416;SDS011;57839;51.332;12.410;2023-04-09T09:02:38;34.17;;;23.73;;
70416;SDS011;57839;51.332;12.410;2023-04-09T09:08:03;23.33;;;17.60;;
70416;SDS011;57839;51.332;12.410;2023-04-09T09:10:40;30.50;;;20.50;;
70416;SDS011;57839;51.332;12.410;2023-04-09T09:13:23;45.00;;;31.25;;
70416;SDS011;57839;51.332;12.410;2023-04-09T09:15:50;71.93;;;51.60;;
70416;SDS011;57839;51.332;12.410;2023-04-09T09:18:19;29.75;;;22.20;;
70416;SDS011;57839;51.332;12.410;2023-04-09T09:21:14;30.38;;;21.48;;
70416;SDS011;57839;51.332;12.410;2023-04-09T09:23:40;28.25;;;20.90;;
70416;SDS011;57839;51.332;12.410;2023-04-09T09:26:10;31.25;;;23.27;;
70416;SDS011;57839;51.332;12.410;2023-04-09T09:28:40;27.17;;;20.90;;
70416;SDS011;57839;51.332;12.410;2023-04-09T09:31:10;28.60;;;20.77;;
70416;SDS011;57839;51.332;12.410;2023-04-09T09:33:36;27.80;;;20.65;;
70416;SDS011;57839;51.332;12.410;2023-04-09T09:36:02;27.23;;;19.50;;
70416;SDS011;57839;51.332;12.410;2023-04-09T09:38:28;29.30;;;20.70;;
70416;SDS011;57839;51.332;12.410;2023-04-09T09:40:54;49.40;;;34.50;;
70416;SDS011;57839;51.332;12.410;2023-04-09T09:43:20;35.55;;;25.38;;
70416;SDS011;57839;51.332;12.410;2023-04-09T09:45:46;32.83;;;24.88;;
70416;SDS011;57839;51.332;12.410;2023-04-09T09:48:12;30.13;;;21.50;;
70416;SDS011;57839;51.332;12.410;2023-04-09T09:50:39;27.83;;;20.08;;
70416;SDS011;57839;51.332;12.410;2023-04-09T09:53:06;27.42;;;20.70;;
70416;SDS011;57839;51.332;12.410;2023-04-09T09:55:39;26.80;;;20.95;;
70416;SDS011;57839;51.332;12.410;2023-04-09T09:58:11;28.65;;;21.00;;
70416;SDS011;57839;51.332;12.410;2023-04-09T10:00:41;26.13;;;20.92;;
70416;SDS011;57839;51.332;12.410;2023-04-09T10:03:19;23.40;;;19.45;;
70416;SDS011;57839;51.332;12.410;2023-04-09T10:05:46;25.55;;;20.48;;
70416;SDS011;57839;51.332;12.410;2023-04-09T10:08:13;25.00;;;19.75;;
70416;SDS011;57839;51.332;12.410;2023-04-09T10:10:39;20.88;;;18.13;;
70416;SDS011;57839;51.332;12.410;2023-04-09T10:13:08;23.25;;;18.80;;
70416;SDS011;57839;51.332;12.410;2023-04-09T10:15:39;27.27;;;18.85;;
70416;SDS011;57839;51.332;12.410;2023-04-09T10:18:07;22.98;;;18.52;;
70416;SDS011;57839;51.332;12.410;2023-04-09T10:20:35;24.08;;;19.30;;
70416;SDS011;57839;51.332;12.410;2023-04-09T10:23:08;24.52;;;19.00;;
70416;SDS011;57839;51.332;12.410;2023-04-09T10:25:38;22.58;;;17.83;;
70416;SDS011;57839;51.332;12.410;2023-04-09T10:28:13;21.05;;;18.00;;
70416;SDS011;57839;51.332;12.410;2023-04-09T10:30:41;20.27;;;16.80;;
70416;SDS011;57839;51.332;12.410;2023-04-09T10:33:14;18.90;;;16.17;;
70416;SDS011;57839;51.332;12.410;2023-04-09T10:35:45;19.80;;;16.52;;
70416;SDS011;57839;51.332;12.410;2023-04-09T10:38:12;20.80;;;17.02;;
70416;SDS011;57839;51.332;12.410;2023-04-09T10:40:49;19.35;;;16.27;;
70416;SDS011;57839;51.332;12.410;2023-04-09T10:43:17;19.63;;;15.95;;
70416;SDS011;57839;51.332;12.410;2023-04-09T10:45:44;18.65;;;16.60;;
70416;SDS011;57839;51.332;12.410;2023-04-09T10:48:10;17.48;;;15.30;;
70416;SDS011;57839;51.332;12.410;2023-04-09T10:50:38;19.38;;;16.23;;
70416;SDS011;57839;51.332;12.410;2023-04-09T10:53:04;17.08;;;14.88;;
70416;SDS011;57839;51.332;12.410;2023-04-09T10:58:09;17.75;;;15.57;;
70416;SDS011;57839;51.332;12.410;2023-04-09T11:00:36;18.92;;;16.70;;
70416;SDS011;57839;51.332;12.410;2023-04-09T11:05:38;18.42;;;15.93;;
70416;SDS011;57839;51.332;12.410;2023-04-09T11:10:34;18.90;;;15.60;;
70416;SDS011;57839;51.332;12.410;2023-04-09T11:13:00;17.30;;;14.48;;
70416;SDS011;57839;51.332;12.410;2023-04-09T11:15:26;71.22;;;52.72;;
70416;SDS011;57839;51.332;12.410;2023-04-09T11:17:52;18.85;;;16.10;;
70416;SDS011;57839;51.332;12.410;2023-04-09T11:20:19;16.70;;;14.07;;
70416;SDS011;57839;51.332;12.410;2023-04-09T11:22:46;16.05;;;13.43;;
70416;SDS011;57839;51.332;12.410;2023-04-09T11:25:17;16.10;;;14.43;;
70416;SDS011;57839;51.332;12.410;2023-04-09T11:27:53;15.32;;;13.73;;
70416;SDS011;57839;51.332;12.410;2023-04-09T11:30:18;18.77;;;14.60;;
70416;SDS011;57839;51.332;12.410;2023-04-09T11:32:44;17.17;;;15.38;;
70416;SDS011;57839;51.332;12.410;2023-04-09T11:35:14;16.55;;;14.40;;
70416;SDS011;57839;51.332;12.410;2023-04-09T11:37:41;16.35;;;14.60;;
70416;SDS011;57839;51.332;12.410;2023-04-09T11:40:18;19.90;;;14.93;;
70416;SDS011;57839;51.332;12.410;2023-04-09T11:42:45;17.15;;;15.23;;
70416;SDS011;57839;51.332;12.410;2023-04-09T11:45:13;15.95;;;14.25;;
70416;SDS011;57839;51.332;12.410;2023-04-09T11:47:39;16.13;;;14.43;;
70416;SDS011;57839;51.332;12.410;2023-04-09T11:50:06;17.40;;;15.55;;
70416;SDS011;57839;51.332;12.410;2023-04-09T11:52:32;17.70;;;15.38;;
70416;SDS011;57839;51.332;12.410;2023-04-09T11:55:03;16.17;;;14.30;;
70416;SDS011;57839;51.332;12.410;2023-04-09T11:57:42;16.98;;;14.57;;
70416;SDS011;57839;51.332;12.410;2023-04-09T12:00:10;16.70;;;14.90;;
70416;SDS011;57839;51.332;12.410;2023-04-09T12:05:10;18.27;;;15.98;;
70416;SDS011;57839;51.332;12.410;2023-04-09T12:07:37;17.88;;;15.70;;
70416;SDS011;57839;51.332;12.410;2023-04-09T12:10:06;20.08;;;15.70;;
70416;SDS011;57839;51.332;12.410;2023-04-09T12:12:40;17.27;;;15.40;;
70416;SDS011;57839;51.332;12.410;2023-04-09T12:15:17;17.20;;;14.43;;
70416;SDS011;57839;51.332;12.410;2023-04-09T12:17:52;16.23;;;14.43;;
70416;SDS011;57839;51.332;12.410;2023-04-09T12:20:30;17.45;;;14.68;;
70416;SDS011;57839;51.332;12.410;2023-04-09T12:22:57;15.90;;;13.85;;
70416;SDS011;57839;51.332;12.410;2023-04-09T12:25:25;16.80;;;14.25;;
70416;SDS011;57839;51.332;12.410;2023-04-09T12:27:52;17.38;;;14.95;;
70416;SDS011;57839;51.332;12.410;2023-04-09T12:30:20;15.07;;;13.40;;
70416;SDS011;57839;51.332;12.410;2023-04-09T12:32:45;16.00;;;13.80;;
70416;SDS011;57839;51.332;12.410;2023-04-09T12:35:12;16.02;;;14.23;;
70416;SDS011;57839;51.332;12.410;2023-04-09T12:37:38;16.85;;;14.90;;
70416;SDS011;57839;51.332;12.410;2023-04-09T12:40:04;14.32;;;12.63;;
70416;SDS011;57839;51.332;12.410;2023-04-09T12:42:30;16.23;;;14.35;;
70416;SDS011;57839;51.332;12.410;2023-04-09T12:44:56;18.00;;;13.68;;
70416;SDS011;57839;51.332;12.410;2023-04-09T12:47:21;16.77;;;13.43;;
70416;SDS011;57839;51.332;12.410;2023-04-09T12:49:47;15.73;;;13.85;;
70416;SDS011;57839;51.332;12.410;2023-04-09T12:52:14;16.92;;;14.25;;
70416;SDS011;57839;51.332;12.410;2023-04-09T12:54:40;15.50;;;13.88;;
70416;SDS011;57839;51.332;12.410;2023-04-09T12:57:06;15.82;;;14.05;;
70416;SDS011;57839;51.332;12.410;2023-04-09T12:59:31;16.50;;;13.95;;
70416;SDS011;57839;51.332;12.410;2023-04-09T13:01:57;16.08;;;14.43;;
70416;SDS011;57839;51.332;12.410;2023-04-09T13:04:23;98.28;;;67.13;;
70416;SDS011;57839;51.332;12.410;2023-04-09T13:06:48;17.45;;;15.55;;
70416;SDS011;57839;51.332;12.410;2023-04-09T13:09:14;16.38;;;14.68;;
70416;SDS011;57839;51.332;12.410;2023-04-09T13:11:40;15.23;;;13.63;;
70416;SDS011;57839;51.332;12.410;2023-04-09T13:14:06;16.67;;;14.25;;
70416;SDS011;57839;51.332;12.410;2023-04-09T13:16:31;18.55;;;14.65;;
70416;SDS011;57839;51.332;12.410;2023-04-09T13:18:57;15.93;;;14.10;;
70416;SDS011;57839;51.332;12.410;2023-04-09T13:21:23;17.17;;;14.18;;
70416;SDS011;57839;51.332;12.410;2023-04-09T13:23:48;18.40;;;15.65;;
70416;SDS011;57839;51.332;12.410;2023-04-09T13:26:14;18.15;;;15.10;;
70416;SDS011;57839;51.332;12.410;2023-04-09T13:28:40;16.17;;;14.18;;
70416;SDS011;57839;51.332;12.410;2023-04-09T13:31:06;18.23;;;15.40;;
70416;SDS011;57839;51.332;12.410;2023-04-09T13:33:31;15.95;;;14.23;;
70416;SDS011;57839;51.332;12.410;2023-04-09T13:35:57;17.50;;;14.15;;
70416;SDS011;57839;51.332;12.410;2023-04-09T13:38:22;16.13;;;14.18;;
70416;SDS011;57839;51.332;12.410;2023-04-09T13:40:48;16.13;;;13.88;;
70416;SDS011;57839;51.332;12.410;2023-04-09T13:43:13;16.42;;;14.38;;
70416;SDS011;57839;51.332;12.410;2023-04-09T13:45:39;15.93;;;14.00;;
70416;SDS011;57839;51.332;12.410;2023-04-09T13:48:05;14.90;;;13.27;;
70416;SDS011;57839;51.332;12.410;2023-04-09T13:50:31;15.15;;;13.15;;
70416;SDS011;57839;51.332;12.410;2023-04-09T13:52:57;14.32;;;12.65;;
70416;SDS011;57839;51.332;12.410;2023-04-09T13:55:22;16.88;;;13.98;;
70416;SDS011;57839;51.332;12.410;2023-04-09T13:57:48;18.90;;;15.30;;
70416;SDS011;57839;51.332;12.410;2023-04-09T14:00:14;18.45;;;13.48;;
70416;SDS011;57839;51.332;12.410;2023-04-09T14:02:39;15.13;;;13.13;;
70416;SDS011;57839;51.332;12.410;2023-04-09T14:05:05;16.60;;;13.98;;
70416;SDS011;57839;51.332;12.410;2023-04-09T14:07:31;16.75;;;13.05;;
70416;SDS011;57839;51.332;12.410;2023-04-09T14:09:57;15.00;;;12.70;;
70416;SDS011;57839;51.332;12.410;2023-04-09T14:12:22;16.27;;;13.80;;
70416;SDS011;57839;51.332;12.410;2023-04-09T14:14:48;14.57;;;13.00;;
70416;SDS011;57839;51.332;12.410;2023-04-09T14:17:14;15.95;;;13.35;;
70416;SDS011;57839;51.332;12.410;2023-04-09T14:19:40;17.55;;;14.15;;
70416;SDS011;57839;51.332;12.410;2023-04-09T14:22:05;16.95;;;14.38;;
70416;SDS011;57839;51.332;12.410;2023-04-09T14:24:33;13.73;;;11.90;;
70416;SDS011;57839;51.332;12.410;2023-04-09T14:27:06;15.05;;;12.50;;
70416;SDS011;57839;51.332;12.410;2023-04-09T14:29:33;15.20;;;11.95;;